createdAt,value
2023-01-26T00:02:09.500Z,101341.75
2023-01-26T00:04:37.120Z,101333.19
2023-01-26T00:07:05.017Z,101334.75
2023-01-26T00:09:32.660Z,101342.41
2023-01-26T00:12:00.628Z,101346.88
2023-01-26T00:14:28.348Z,101323.97
2023-01-26T00:16:56.286Z,101333.41
2023-01-26T00:19:23.905Z,101330.47
2023-01-26T00:21:51.847Z,101328.91
2023-01-26T00:24:19.523Z,101324.94
2023-01-26T00:26:47.407Z,101327.97
2023-01-26T00:29:15.005Z,101322.81
2023-01-26T00:31:42.938Z,101316.28
2023-01-26T00:34:10.553Z,101318.97
2023-01-26T00:36:42.066Z,101322.16
2023-01-26T00:39:09.677Z,101326.31
2023-01-26T00:41:56.161Z,101317.41
2023-01-26T00:44:23.808Z,101317.84
2023-01-26T00:46:52.749Z,101312.72
2023-01-26T00:49:20.408Z,101302.13
2023-01-26T00:51:48.360Z,101308.06
2023-01-26T00:54:16.608Z,101310.56
2023-01-26T00:56:44.572Z,101303.94
2023-01-26T00:59:12.366Z,101302.25
2023-01-26T01:01:40.448Z,101298.78
2023-01-26T01:04:08.226Z,101308.03
2023-01-26T01:06:36.403Z,101309.09
2023-01-26T01:09:04.251Z,101309.38
2023-01-26T01:11:32.334Z,101299.88
2023-01-26T01:14:00.313Z,101293.84
2023-01-26T01:16:28.948Z,101295.50
2023-01-26T01:18:57.959Z,101289.72
2023-01-26T01:21:26.191Z,101289.66
2023-01-26T01:23:54.251Z,101284.16
2023-01-26T01:26:22.238Z,101285.00
2023-01-26T01:28:53.312Z,101279.94
2023-01-26T01:31:22.009Z,101271.78
2023-01-26T01:33:50.274Z,101260.38
2023-01-26T01:36:18.366Z,101264.09
2023-01-26T01:38:47.400Z,101262.09
2023-01-26T01:41:17.914Z,101261.53
2023-01-26T01:43:45.995Z,101248.94
2023-01-26T01:46:29.526Z,101257.34
2023-01-26T01:49:07.529Z,101252.81
2023-01-26T01:51:45.249Z,101249.47
2023-01-26T01:54:17.245Z,101244.31
2023-01-26T01:56:50.459Z,101247.78
2023-01-26T01:59:21.498Z,101242.34
2023-01-26T02:01:52.145Z,101247.75
2023-01-26T02:04:22.493Z,101219.22
2023-01-26T02:06:53.077Z,101221.19
2023-01-26T02:09:47.128Z,101231.00
2023-01-26T02:12:20.993Z,101226.09
2023-01-26T02:14:50.343Z,101228.41
2023-01-26T02:17:18.254Z,101218.09
2023-01-26T02:20:04.791Z,101213.38
2023-01-26T02:22:52.837Z,101214.09
2023-01-26T02:25:42.637Z,101211.44
2023-01-26T02:28:10.951Z,101215.50
2023-01-26T02:30:38.822Z,101210.34
2023-01-26T02:33:06.786Z,101204.31
2023-01-26T02:35:35.252Z,101203.03
2023-01-26T02:38:03.472Z,101201.94
2023-01-26T02:40:39.722Z,101195.84
2023-01-26T02:43:07.895Z,101194.78
2023-01-26T02:45:40.662Z,101190.78
2023-01-26T02:48:09.200Z,101189.94
2023-01-26T02:50:36.889Z,101185.75
2023-01-26T02:53:05.182Z,101178.84
2023-01-26T02:55:32.760Z,101188.66
2023-01-26T02:58:03.606Z,101182.41
2023-01-26T03:00:37.448Z,101176.97
2023-01-26T03:03:16.584Z,101168.63
2023-01-26T03:05:44.346Z,101174.00
2023-01-26T03:08:12.387Z,101170.69
2023-01-26T03:10:40.489Z,101169.63
2023-01-26T03:13:08.871Z,101166.13
2023-01-26T03:15:43.320Z,101163.63
2023-01-26T03:18:33.784Z,101160.00
2023-01-26T03:21:23.729Z,101152.09
2023-01-26T03:24:10.499Z,101149.44
2023-01-26T03:26:57.936Z,101151.03
2023-01-26T03:29:26.842Z,101135.78
2023-01-26T03:31:59.392Z,101136.63
2023-01-26T03:34:29.542Z,101142.59
2023-01-26T03:36:58.212Z,101139.81
2023-01-26T03:39:46.229Z,101136.13
2023-01-26T03:42:33.429Z,101137.00
2023-01-26T03:45:19.873Z,101142.91
2023-01-26T03:48:08.191Z,101144.53
2023-01-26T03:50:54.717Z,101144.59
2023-01-26T03:53:43.310Z,101137.81
2023-01-26T03:56:19.176Z,101134.00
2023-01-26T03:58:56.347Z,101133.66
2023-01-26T04:01:28.214Z,101126.13
2023-01-26T04:04:17.599Z,101125.88
2023-01-26T04:07:07.555Z,101121.44
2023-01-26T04:09:39.675Z,101111.16
2023-01-26T04:12:10.232Z,101114.75
2023-01-26T04:15:07.988Z,101116.09
2023-01-26T04:17:54.506Z,101110.72
2023-01-26T04:20:40.862Z,101110.03
2023-01-26T04:23:16.862Z,101106.56
2023-01-26T04:25:47.043Z,101110.09
2023-01-26T04:28:15.558Z,101111.88
2023-01-26T04:30:43.425Z,101105.03
2023-01-26T04:33:12.737Z,101097.22
2023-01-26T04:35:41.453Z,101105.13
2023-01-26T04:38:09.558Z,101115.38
2023-01-26T04:40:39.720Z,101121.34
2023-01-26T04:43:07.678Z,101124.59
2023-01-26T04:45:35.350Z,101119.69
2023-01-26T04:48:03.328Z,101117.25
2023-01-26T04:50:32.188Z,101116.56
2023-01-26T04:53:00.519Z,101117.88
2023-01-26T04:55:28.221Z,101116.13
2023-01-26T04:57:57.557Z,101105.09
2023-01-26T05:00:25.359Z,101109.50
2023-01-26T05:02:54.617Z,101104.25
2023-01-26T05:05:23.153Z,101113.41
2023-01-26T05:07:53.285Z,101102.94
2023-01-26T05:10:21.017Z,101101.59
2023-01-26T05:13:07.587Z,101101.50
2023-01-26T05:15:46.384Z,101100.97
2023-01-26T05:18:24.880Z,101100.84
2023-01-26T05:21:12.831Z,101104.03
2023-01-26T05:23:45.634Z,101108.41
2023-01-26T05:27:08.771Z,101093.16
2023-01-26T05:29:37.551Z,101101.88
2023-01-26T05:32:05.399Z,101101.94
2023-01-26T05:34:34.406Z,101097.84
2023-01-26T05:37:03.797Z,101105.25
2023-01-26T05:39:32.955Z,101099.16
2023-01-26T05:42:01.771Z,101103.16
2023-01-26T05:45:00.987Z,101107.59
2023-01-26T05:47:29.773Z,101100.78
2023-01-26T05:49:58.668Z,101094.88
2023-01-26T05:52:30.736Z,101091.84
2023-01-26T05:54:58.926Z,101096.78
2023-01-26T05:57:26.667Z,101092.31
2023-01-26T05:59:59.045Z,101098.13
2023-01-26T06:02:29.840Z,101091.50
2023-01-26T06:04:58.129Z,101094.03
2023-01-26T06:07:26.783Z,101099.19
2023-01-26T06:10:09.868Z,101099.19
2023-01-26T06:12:47.217Z,101105.03
2023-01-26T06:15:37.542Z,101106.97
2023-01-26T06:18:05.351Z,101107.94
2023-01-26T06:20:33.846Z,101101.53
2023-01-26T06:23:03.141Z,101104.34
2023-01-26T06:25:34.731Z,101107.13
2023-01-26T06:28:03.972Z,101106.03
2023-01-26T06:30:34.571Z,101099.31
2023-01-26T06:33:07.068Z,101106.38
2023-01-26T06:35:38.157Z,101105.50
2023-01-26T06:38:11.091Z,101105.19
2023-01-26T06:40:39.113Z,101101.88
2023-01-26T06:43:07.124Z,101101.97
2023-01-26T06:45:35.375Z,101095.03
2023-01-26T06:48:03.259Z,101092.50
2023-01-26T06:50:35.602Z,101094.41
2023-01-26T06:53:21.766Z,101099.31
2023-01-26T06:55:55.673Z,101099.94
2023-01-26T06:58:35.592Z,101093.47
2023-01-26T07:01:26.116Z,101090.66
2023-01-26T07:03:55.052Z,101097.63
2023-01-26T07:06:22.941Z,101095.94
2023-01-26T07:08:50.682Z,101086.25
2023-01-26T07:11:20.190Z,101088.84
2023-01-26T07:13:47.928Z,101088.97
2023-01-26T07:16:17.925Z,101087.59
2023-01-26T07:18:45.781Z,101077.94
2023-01-26T07:21:16.477Z,101077.31
2023-01-26T07:23:44.636Z,101078.81
2023-01-26T07:26:12.893Z,101072.72
2023-01-26T07:28:40.689Z,101079.56
2023-01-26T07:31:10.587Z,101078.59
2023-01-26T07:33:38.431Z,101070.44
2023-01-26T07:36:06.959Z,101067.88
2023-01-26T07:38:35.112Z,101074.00
2023-01-26T07:43:22.677Z,101071.31
2023-01-26T07:45:54.865Z,101073.25
2023-01-26T07:48:24.401Z,101069.00
2023-01-26T07:50:52.403Z,101073.28
2023-01-26T07:53:21.332Z,101071.09
2023-01-26T07:55:52.258Z,101059.91
2023-01-26T07:58:20.327Z,101073.59
2023-01-26T08:00:48.348Z,101070.31
2023-01-26T08:03:16.040Z,101069.31
2023-01-26T08:05:43.998Z,101065.19
2023-01-26T08:08:12.306Z,101057.41
2023-01-26T08:10:40.320Z,101064.41
2023-01-26T08:13:07.950Z,101072.16
2023-01-26T08:15:36.079Z,101049.69
2023-01-26T08:18:05.126Z,101056.78
2023-01-26T08:20:33.112Z,101053.31
2023-01-26T08:23:00.798Z,101045.53
2023-01-26T08:25:28.876Z,101045.78
2023-01-26T08:27:56.521Z,101042.50
2023-01-26T08:30:24.648Z,101045.69
2023-01-26T08:32:52.356Z,101048.34
2023-01-26T08:35:20.415Z,101044.03
2023-01-26T08:37:48.120Z,101046.72
2023-01-26T08:40:16.541Z,101046.66
2023-01-26T08:42:44.256Z,101057.88
2023-01-26T08:45:12.344Z,101059.59
2023-01-26T08:47:40.106Z,101048.34
2023-01-26T08:50:09.476Z,101062.41
2023-01-26T08:52:37.544Z,101067.53
2023-01-26T08:55:05.814Z,101060.63
2023-01-26T08:57:33.882Z,101068.34
2023-01-26T09:00:01.914Z,101070.00
2023-01-26T09:02:29.849Z,101080.44
2023-01-26T09:04:57.908Z,101081.19
2023-01-26T09:07:26.603Z,101076.94
2023-01-26T09:09:54.588Z,101076.13
2023-01-26T09:12:22.193Z,101069.31
2023-01-26T09:14:50.166Z,101077.75
2023-01-26T09:17:17.799Z,101077.94
2023-01-26T09:19:45.732Z,101087.44
2023-01-26T09:22:13.376Z,101087.44
2023-01-26T09:24:41.234Z,101084.97
2023-01-26T09:27:09.292Z,101084.75
2023-01-26T09:29:37.228Z,101084.69
2023-01-26T09:32:05.087Z,101082.97
2023-01-26T09:34:33.077Z,101089.06
2023-01-26T09:37:00.673Z,101089.94
2023-01-26T09:39:28.841Z,101079.78
2023-01-26T09:42:25.458Z,101071.03
2023-01-26T09:45:07.908Z,101072.03
2023-01-26T09:47:51.407Z,101070.22
2023-01-26T09:50:28.525Z,101067.53
2023-01-26T09:53:35.923Z,101057.16
2023-01-26T09:56:04.279Z,101063.03
2023-01-26T09:58:39.292Z,101057.19
2023-01-26T10:01:34.684Z,101051.28
2023-01-26T10:04:32.792Z,101044.41
2023-01-26T10:07:05.173Z,101042.78
2023-01-26T10:09:52.201Z,101045.38
2023-01-26T10:12:30.462Z,101039.47
2023-01-26T10:15:21.700Z,101042.03
2023-01-26T10:17:52.987Z,101037.69
2023-01-26T10:20:36.300Z,101038.56
2023-01-26T10:23:17.792Z,101034.28
2023-01-26T10:25:47.071Z,101035.16
2023-01-26T10:28:18.582Z,101023.00
2023-01-26T10:30:47.849Z,101020.38
2023-01-26T10:33:20.896Z,101024.75
2023-01-26T10:35:49.011Z,101014.28
2023-01-26T10:38:35.257Z,101014.34
2023-01-26T10:41:16.974Z,101011.00
2023-01-26T10:44:00.284Z,101008.25
2023-01-26T10:46:35.803Z,101015.09
2023-01-26T10:49:17.510Z,101012.59
2023-01-26T10:52:05.187Z,101004.00
2023-01-26T10:54:37.116Z,100993.72
2023-01-26T10:57:28.131Z,100998.16
2023-01-26T11:00:09.723Z,100991.13
2023-01-26T11:02:37.650Z,100986.84
2023-01-26T11:05:18.773Z,100976.53
2023-01-26T11:07:49.431Z,100974.91
2023-01-26T11:10:25.343Z,100967.31
2023-01-26T11:13:08.474Z,100968.25
2023-01-26T11:15:40.489Z,100969.13
2023-01-26T11:18:31.963Z,100963.81
2023-01-26T11:21:10.245Z,100958.63
2023-01-26T11:23:46.167Z,100958.69
2023-01-26T11:26:40.967Z,100957.78
2023-01-26T11:29:11.678Z,100957.78
2023-01-26T11:32:10.949Z,100944.81
2023-01-26T11:35:19.973Z,100946.59
2023-01-26T11:38:01.464Z,100947.47
2023-01-26T11:40:44.029Z,100940.59
2023-01-26T11:43:14.749Z,100936.16
2023-01-26T11:46:11.571Z,100935.22
2023-01-26T11:49:06.453Z,100931.75
2023-01-26T11:51:48.732Z,100927.38
2023-01-26T11:54:19.546Z,100931.88
2023-01-26T11:57:34.618Z,100931.09
2023-01-26T12:00:30.557Z,100929.34
2023-01-26T12:03:12.503Z,100925.81
2023-01-26T12:05:47.819Z,100928.38
2023-01-26T12:08:39.945Z,100923.06
2023-01-26T12:11:31.764Z,100926.47
2023-01-26T12:14:08.634Z,100922.97
2023-01-26T12:17:16.692Z,100917.75
2023-01-26T12:20:24.462Z,100902.38
2023-01-26T12:23:25.639Z,100904.03
2023-01-26T12:26:01.881Z,100899.78
2023-01-26T12:28:43.488Z,100905.81
2023-01-26T12:31:39.475Z,100904.97
2023-01-26T12:34:13.074Z,100910.13
2023-01-26T12:36:58.458Z,100910.00
2023-01-26T12:39:43.605Z,100909.06
2023-01-26T12:42:14.333Z,100909.97
2023-01-26T12:44:48.431Z,100917.66
2023-01-26T12:47:31.046Z,100912.50
2023-01-26T12:50:08.648Z,100914.19
2023-01-26T12:53:00.473Z,100914.25
2023-01-26T12:55:44.235Z,100917.69
2023-01-26T12:58:37.975Z,100912.38
2023-01-26T13:01:10.732Z,100914.88
2023-01-26T13:03:43.344Z,100911.44
2023-01-26T13:06:14.336Z,100908.03
2023-01-26T13:08:58.116Z,100914.22
2023-01-26T13:11:44.548Z,100900.31
2023-01-26T13:14:37.519Z,100902.00
2023-01-26T13:17:17.634Z,100904.56
2023-01-26T13:19:45.612Z,100900.22
2023-01-26T13:22:41.515Z,100902.94
2023-01-26T13:25:33.734Z,100896.88
2023-01-26T13:28:13.010Z,100898.56
2023-01-26T13:30:46.201Z,100896.72
2023-01-26T13:33:23.186Z,100895.81
2023-01-26T13:35:53.866Z,100894.22
2023-01-26T13:38:33.064Z,100896.75
2023-01-26T13:41:01.937Z,100891.72
2023-01-26T13:43:49.346Z,100892.50
2023-01-26T13:46:30.704Z,100884.72
2023-01-26T13:48:58.665Z,100881.34
2023-01-26T13:51:35.638Z,100876.13
2023-01-26T13:54:03.576Z,100880.50
2023-01-26T13:56:42.588Z,100883.09
2023-01-26T13:59:20.797Z,100890.63
2023-01-26T14:01:58.111Z,100890.66
2023-01-26T14:04:27.846Z,100889.84
2023-01-26T14:06:58.735Z,100896.69
2023-01-26T14:09:28.818Z,100894.81
2023-01-26T14:12:02.176Z,100882.03
2023-01-26T14:14:37.012Z,100875.84
2023-01-26T14:17:34.098Z,100882.69
2023-01-26T14:20:03.789Z,100875.81
2023-01-26T14:22:31.492Z,100874.19
2023-01-26T14:24:59.407Z,100885.25
2023-01-26T14:27:39.137Z,100880.22
2023-01-26T14:30:31.849Z,100879.25
2023-01-26T14:33:06.402Z,100872.63
2023-01-26T14:35:34.531Z,100874.94
2023-01-26T14:38:19.879Z,100875.75
2023-01-26T14:40:53.650Z,100873.31
2023-01-26T14:43:22.153Z,100867.19
2023-01-26T14:46:03.348Z,100862.06
2023-01-26T14:48:43.461Z,100860.31
2023-01-26T14:51:20.125Z,100867.16
2023-01-26T14:54:04.789Z,100864.53
2023-01-26T14:56:38.838Z,100871.38
2023-01-26T14:59:07.584Z,100870.31
2023-01-26T15:01:35.854Z,100867.03
2023-01-26T15:04:18.715Z,100870.34
2023-01-26T15:06:46.955Z,100871.97
2023-01-26T15:09:28.063Z,100864.34
2023-01-26T15:12:18.238Z,100871.94
2023-01-26T15:14:50.604Z,100861.59
2023-01-26T15:18:00.883Z,100865.88
2023-01-26T15:20:28.505Z,100850.41
2023-01-26T15:22:56.578Z,100859.81
2023-01-26T15:25:29.594Z,100861.59
2023-01-26T15:27:59.551Z,100856.56
2023-01-26T15:30:33.074Z,100852.34
2023-01-26T15:33:02.063Z,100850.75
2023-01-26T15:35:35.290Z,100857.53
2023-01-26T15:38:11.920Z,100857.56
2023-01-26T15:40:40.242Z,100862.44
2023-01-26T15:43:18.669Z,100857.31
2023-01-26T15:45:57.508Z,100862.69
2023-01-26T15:48:26.800Z,100865.16
2023-01-26T15:50:54.565Z,100866.72
2023-01-26T15:53:23.439Z,100863.47
2023-01-26T15:55:56.007Z,100862.69
2023-01-26T15:58:25.825Z,100867.69
2023-01-26T16:00:53.712Z,100870.25
2023-01-26T16:03:22.613Z,100860.91
2023-01-26T16:05:50.576Z,100870.97
2023-01-26T16:08:19.698Z,100866.63
2023-01-26T16:10:47.569Z,100868.47
2023-01-26T16:13:18.734Z,100862.47
2023-01-26T16:15:48.852Z,100869.16
2023-01-26T16:18:17.573Z,100872.75
2023-01-26T16:20:47.707Z,100871.78
2023-01-26T16:23:18.842Z,100875.31
2023-01-26T16:25:47.228Z,100872.09
2023-01-26T16:28:15.562Z,100873.81
2023-01-26T16:30:45.062Z,100878.69
2023-01-26T16:33:18.110Z,100881.25
2023-01-26T16:35:45.764Z,100880.19
2023-01-26T16:38:13.764Z,100876.72
2023-01-26T16:40:47.108Z,100877.47
2023-01-26T16:43:23.638Z,100871.59
2023-01-26T16:45:52.596Z,100875.13
2023-01-26T16:48:22.649Z,100880.19
2023-01-26T16:50:54.492Z,100875.19
2023-01-26T16:53:33.186Z,100878.91
2023-01-26T16:56:00.835Z,100871.72
2023-01-26T16:58:30.558Z,100875.06
2023-01-26T17:00:58.559Z,100886.22
2023-01-26T17:03:26.571Z,100887.88
2023-01-26T17:05:55.376Z,100878.47
2023-01-26T17:08:23.525Z,100880.19
2023-01-26T17:11:01.558Z,100873.44
2023-01-26T17:13:31.599Z,100881.06
2023-01-26T17:15:59.385Z,100871.34
2023-01-26T17:18:27.382Z,100872.34
2023-01-26T17:21:01.721Z,100866.41
2023-01-26T17:23:29.761Z,100878.59
2023-01-26T17:26:00.719Z,100873.41
2023-01-26T17:28:28.793Z,100873.38
2023-01-26T17:30:57.071Z,100865.72
2023-01-26T17:33:26.342Z,100866.63
2023-01-26T17:36:01.569Z,100873.44
2023-01-26T17:38:30.121Z,100861.31
2023-01-26T17:40:59.300Z,100856.72
2023-01-26T17:43:28.132Z,100857.66
2023-01-26T17:46:13.396Z,100857.63
2023-01-26T17:48:44.186Z,100861.03
2023-01-26T17:51:14.886Z,100855.06
2023-01-26T17:53:44.689Z,100853.16
2023-01-26T17:56:14.850Z,100854.03
2023-01-26T17:58:42.918Z,100850.00
2023-01-26T18:01:11.150Z,100859.56
2023-01-26T18:03:42.728Z,100860.41
2023-01-26T18:06:10.839Z,100858.47
2023-01-26T18:08:39.292Z,100864.41
2023-01-26T18:11:10.105Z,100870.41
2023-01-26T18:13:38.339Z,100866.88
2023-01-26T18:16:08.159Z,100856.56
2023-01-26T18:18:37.050Z,100859.25
2023-01-26T18:21:19.921Z,100859.56
2023-01-26T18:23:53.092Z,100858.31
2023-01-26T18:26:24.172Z,100850.63
2023-01-26T18:28:52.702Z,100855.06
2023-01-26T18:31:26.480Z,100856.66
2023-01-26T18:33:58.935Z,100848.00
2023-01-26T18:36:27.449Z,100858.28
2023-01-26T18:38:58.113Z,100855.81
2023-01-26T18:41:27.496Z,100854.22
2023-01-26T18:43:58.462Z,100850.81
2023-01-26T18:46:27.943Z,100862.03
2023-01-26T18:49:01.033Z,100862.75
2023-01-26T18:51:31.298Z,100867.81
2023-01-26T18:53:59.553Z,100874.59
2023-01-26T18:56:28.219Z,100870.44
2023-01-26T18:58:56.247Z,100872.94
2023-01-26T19:01:24.190Z,100869.81
2023-01-26T19:03:55.481Z,100867.91
2023-01-26T19:06:25.389Z,100864.47
2023-01-26T19:09:00.298Z,100866.28
2023-01-26T19:11:33.751Z,100860.97
2023-01-26T19:14:02.418Z,100867.88
2023-01-26T19:16:30.433Z,100869.63
2023-01-26T19:18:58.960Z,100871.31
2023-01-26T19:21:27.697Z,100873.09
2023-01-26T19:23:58.783Z,100873.91
2023-01-26T19:26:29.548Z,100880.16
2023-01-26T19:28:58.356Z,100878.38
2023-01-26T19:31:27.164Z,100884.16
2023-01-26T19:34:00.564Z,100876.38
2023-01-26T19:36:30.308Z,100870.41
2023-01-26T19:38:58.370Z,100870.47
2023-01-26T19:41:26.571Z,100866.19
2023-01-26T19:43:54.642Z,100868.81
2023-01-26T19:46:22.375Z,100863.78
2023-01-26T19:48:50.855Z,100862.94
2023-01-26T19:51:21.863Z,100858.41
2023-01-26T19:53:53.832Z,100861.91
2023-01-26T19:56:36.258Z,100869.47
2023-01-26T19:59:07.933Z,100869.47
2023-01-26T20:01:36.211Z,100869.31
2023-01-26T20:04:07.355Z,100864.25
2023-01-26T20:06:36.606Z,100861.81
2023-01-26T20:09:07.412Z,100867.59
2023-01-26T20:11:35.402Z,100866.78
2023-01-26T20:14:10.894Z,100866.03
2023-01-26T20:16:39.700Z,100856.63
2023-01-26T20:19:07.767Z,100857.41
2023-01-26T20:21:35.705Z,100855.88
2023-01-26T20:24:06.398Z,100861.22
2023-01-26T20:26:35.178Z,100861.09
2023-01-26T20:29:03.758Z,100857.50
2023-01-26T20:31:32.803Z,100853.88
2023-01-26T20:34:02.132Z,100854.88
2023-01-26T20:36:30.222Z,100855.56
2023-01-26T20:38:58.388Z,100850.34
2023-01-26T20:41:28.977Z,100857.16
2023-01-26T20:44:01.614Z,100857.56
2023-01-26T20:46:36.391Z,100858.44
2023-01-26T20:49:05.472Z,100865.97
2023-01-26T20:51:35.962Z,100864.38
2023-01-26T20:54:06.631Z,100860.75
2023-01-26T20:56:35.583Z,100865.75
2023-01-26T20:59:04.710Z,100867.38
2023-01-26T21:01:34.262Z,100858.72
2023-01-26T21:04:02.758Z,100857.13
2023-01-26T21:06:30.651Z,100853.06
2023-01-26T21:09:00.150Z,100852.28
2023-01-26T21:11:30.706Z,100848.72
2023-01-26T21:14:03.008Z,100846.41
2023-01-26T21:16:32.294Z,100857.56
2023-01-26T21:19:00.569Z,100848.09
2023-01-26T21:21:28.623Z,100853.75
2023-01-26T21:23:56.680Z,100845.22
2023-01-26T21:26:27.694Z,100854.63
2023-01-26T21:28:58.385Z,100853.84
2023-01-26T21:31:29.335Z,100854.53
2023-01-26T21:33:58.437Z,100854.69
2023-01-26T21:36:29.163Z,100860.69
2023-01-26T21:38:58.961Z,100844.44
2023-01-26T21:41:50.636Z,100852.09
2023-01-26T21:44:24.213Z,100844.66
2023-01-26T21:46:55.244Z,100848.81
2023-01-26T21:49:24.189Z,100847.06
2023-01-26T21:52:11.322Z,100856.59
2023-01-26T21:54:39.524Z,100846.47
2023-01-26T21:57:29.367Z,100848.81
2023-01-26T21:59:57.376Z,100844.28
2023-01-26T22:02:25.147Z,100854.78
2023-01-26T22:04:53.377Z,100855.44
2023-01-26T22:07:21.172Z,100855.25
2023-01-26T22:09:49.133Z,100848.41
2023-01-26T22:12:16.715Z,100853.56
2023-01-26T22:14:44.660Z,100847.09
2023-01-26T22:17:12.285Z,100858.03
2023-01-26T22:19:40.159Z,100860.63
2023-01-26T22:22:07.762Z,100847.78
2023-01-26T22:24:35.721Z,100846.91
2023-01-26T22:27:03.518Z,100850.25
2023-01-26T22:29:31.509Z,100843.31
2023-01-26T22:31:59.139Z,100843.50
2023-01-26T22:34:27.091Z,100844.28
2023-01-26T22:36:54.676Z,100840.81
2023-01-26T22:39:22.601Z,100836.69
2023-01-26T22:41:50.153Z,100835.97
2023-01-26T22:44:18.216Z,100846.03
2023-01-26T22:46:45.904Z,100836.69
2023-01-26T22:49:13.861Z,100839.00
2023-01-26T22:51:41.481Z,100841.72
2023-01-26T22:54:09.420Z,100844.13
2023-01-26T22:56:37.240Z,100845.09
2023-01-26T22:59:05.102Z,100846.91
2023-01-26T23:01:33.601Z,100839.88
2023-01-26T23:04:01.933Z,100839.78
2023-01-26T23:06:30.124Z,100840.66
2023-01-26T23:09:04.544Z,100836.44
2023-01-26T23:11:32.253Z,100839.84
2023-01-26T23:14:01.147Z,100838.97
2023-01-26T23:16:29.641Z,100833.00
2023-01-26T23:18:59.472Z,100834.69
2023-01-26T23:21:28.318Z,100833.00
2023-01-26T23:23:57.210Z,100836.47
2023-01-26T23:26:25.487Z,100836.53
2023-01-26T23:28:53.744Z,100826.34
2023-01-26T23:31:21.481Z,100824.63
2023-01-26T23:33:49.376Z,100829.59
2023-01-26T23:36:17.180Z,100827.00
2023-01-26T23:38:45.842Z,100832.16
2023-01-26T23:41:14.020Z,100825.66
2023-01-26T23:43:42.135Z,100817.00
2023-01-26T23:46:11.035Z,100814.22
2023-01-26T23:48:39.275Z,100813.50
2023-01-26T23:51:09.634Z,100813.34
2023-01-26T23:53:38.262Z,100807.22
2023-01-26T23:56:13.801Z,100810.69
2023-01-26T23:58:41.978Z,100805.47
